CheckWX is a tool to help pilots better visualize weather data.  It is not intended as a substitute for an official pre-flight weather briefing.

14:58:43 UTC

YBAS METAR
Alice Springs Airport
Alice Springs, Australia
Current

29 mins ago

YBAS 161430Z AUTO 17006KT 9999 // NCD 06/02 Q1026 RF00.0/000.0
Observed
Jul-16 @ 14:30 UTC
Wind
  • 170° at 6 KTS
Visibility
10,000+ meters
Flight Rules
VFR
Cloud Levels
  • Clear skies
Temperature
C / 43°F
Dewpoint
C / 36°F
Humidity
76%
Altimeter
30.3" Hg
Pressure
1025.92 hPa
Previous

59 mins ago

YBAS 161400Z AUTO 17006KT 9999 // NCD 07/02 Q1026 RF00.0/000.0
Observed
Jul-16 @ 14:00 UTC
Wind
  • 170° at 6 KTS
Visibility
10,000+ meters
Flight Rules
VFR
Cloud Levels
  • Clear skies
Temperature
C / 45°F
Dewpoint
C / 36°F
Humidity
71%
Altimeter
30.3" Hg
Pressure
1025.92 hPa
Previous

1 hour ago

YBAS 161330Z AUTO 18006KT 9999 // NCD 07/02 Q1026 RF00.0/000.0
Observed
Jul-16 @ 13:30 UTC
Wind
  • 180° at 6 KTS
Visibility
10,000+ meters
Flight Rules
VFR
Cloud Levels
  • Clear skies
Temperature
C / 45°F
Dewpoint
C / 36°F
Humidity
71%
Altimeter
30.3" Hg
Pressure
1025.92 hPa